X  Sluiten METAR luchtvaart weer gegevens      EHAM Amsterdam Airport Schiphol
Temperatuur
14°C Temperatuur
8°C Dauwpunt
67% Vochtigheid



Wind
16 KM/U
10 MPH
4 M/S
9 KTS



210°
ZZW
Huidig weer

Wat bewolking Wat bewolking
Luchtdruk 1020.92 (hPa) - 30.15 (inHg)
Zicht 6.2 (mijl) - 10 (km)
Vliegveld
Vliegveld code EHAM

Locatie : Amsterdam Airport Schiphol
Afstand: 20 (km)

Metar:
EHAM 161155Z 21009KT 180V240 9999 FEW030 14/08 Q1021 NOSIG

Tijd: 16-10-2021 13:55 CEST